Stations météo

réclame
Mon MeteoGroup
Wasserkuppe, Allemagne (10544): Température de l'air & dewpoint: 10.08.2018 03:00:00 - 16.08.2018 03:00:00 (CEST)Wasserkuppe, Allemagne (10544): Température de l'air 5cm & Température de l'air -5cm: 10.08.2018 03:00:00 - 16.08.2018 03:00:00 (CEST)Wasserkuppe, Allemagne (10544): Température de l'air -20cm & Température de l'air -100cm: 10.08.2018 03:00:00 - 16.08.2018 03:00:00 (CEST)Wasserkuppe, Allemagne (10544): Vitesse du vent & gusts: 10.08.2018 03:00:00 - 16.08.2018 03:00:00 (CEST)Wasserkuppe, Allemagne (10544): Direction du vent: 10.08.2018 03:00:00 - 16.08.2018 03:00:00 (CEST)Wasserkuppe, Allemagne (10544): visibility: 10.08.2018 03:00:00 - 16.08.2018 03:00:00 (CEST)Wasserkuppe, Allemagne (10544): Ensoleillement: 10.08.2018 03:00:00 - 16.08.2018 03:00:00 (CEST)Wasserkuppe, Allemagne (10544): Quantités de précipitations: 10.08.2018 03:00:00 - 16.08.2018 03:00:00 (CEST)
Date & Time tt [°C] td [°C] tt 5cm [°C] tt -5cm [°C] tt -20cm [°C] tt -100cm [°C] ff [km/h] ff [knt] fx [km/h] fx [knt] dd vv [km] sd [min] rr [mm]
16.08.2018 03:00:00 12,6 8,5 9,4 15,1 18,5 15,4 14 8 21 12 SSE 45 0 0,0
16.08.2018 02:00:00 12,5 8,7 9,2 15,7 18,6 15,4 14 7 19 10 SE 45 0 0,0
16.08.2018 01:00:00 12,2 8,4 9,2 16,5 18,6 15,4 11 6 13 7 SE 45 0 0,0
16.08.2018 00:00:00 12,8 8,9 10,1 17,4 18,7 15,4 3 2 5 3 SE 45 0 0,0
15.08.2018 23:00:00 13,2 9,1 10,3 18,4 18,6 15,4 5 3 6 3 NW 45 0 0,0
15.08.2018 22:00:00 13,6 9,6 10,9 19,6 18,5 15,4 5 3 7 4 NNW 45 0 0,0
15.08.2018 21:00:00 14,4 9,2 11,6 21,1 18,3 15,4 6 3 9 5 WNW 50 0 0,0
15.08.2018 20:00:00 15,4 9,3 14,4 22,5 18,1 15,4 6 3 14 7 W 50 12 0,0
15.08.2018 19:00:00 17,0 9,8 18,1 23,6 17,8 15,4 7 4 21 11 WSW 60 41 0,0
15.08.2018 18:00:00 17,8 9,7 19,6 24,0 17,6 15,4 9 5 22 12 WNW 45 22 0,0
15.08.2018 17:00:00 19,3 9,5 22,2 23,4 17,4 15,4 9 5 20 11 WNW 45 59 0,0
15.08.2018 16:00:00 19,0 9,5 22,4 21,3 17,3 15,4 15 8 23 12 SW 45 40 0,0
15.08.2018 15:00:00 16,3 9,4 18,7 20,0 17,2 15,4 14 8 23 12 WNW 45 17 0,0
15.08.2018 14:00:00 16,1 9,3 18,4 18,3 17,2 15,4 13 7 26 14 W 40 17 0,0
15.08.2018 13:00:00 14,6 10,3 15,6 17,2 17,2 15,4 10 5 20 11 W 30 9 0,0
15.08.2018 12:00:00 13,3 11,1 14,6 16,8 17,2 15,4 9 5 18 10 W 13 0 0,0
15.08.2018 11:00:00 14,0 9,0 14,5 16,5 17,2 15,4 11 6 21 11 W 18 29 0,0
15.08.2018 10:00:00 13,2 11,9 14,0 15,2 17,3 15,4 10 5 18 10 W 2,5 2 0,0
15.08.2018 09:00:00 12,7 12,5 13,1 15,1 17,4 15,4 9 5 21 11 W 0,1 0 0,0
15.08.2018 08:00:00 13,0 12,6 13,3 14,9 17,4 15,4 9 5 13 7 W 0,7 0 0,0
15.08.2018 07:00:00 12,8 12,6 12,9 14,8 17,5 15,5 7 4 11 6 W 0,2 0 0,0
15.08.2018 06:00:00 12,7 12,5 12,6 14,9 17,6 15,5 10 5 14 8 NW 0,6 0 0,0
15.08.2018 05:00:00 12,8 12,6 12,9 14,9 17,6 15,5 11 6 17 9 NW 0,2 0 0,0
15.08.2018 04:00:00 13,0 12,9 13,0 14,9 17,7 15,5 10 6 16 9 W 0,3 0 0,0
15.08.2018 03:00:00 13,0 12,8 13,0 14,9 17,8 15,5 9 5 15 8 W 0,5 0 0,0
15.08.2018 02:00:00 13,1 12,8 13,1 14,8 17,9 15,5 10 5 19 10 WNW 0,5 0 0,0
15.08.2018 01:00:00 13,2 12,7 12,9 14,8 18,0 15,5 11 6 20 11 WNW 7 0 0,0
15.08.2018 00:00:00 13,4 12,4 13,1 14,9 18,0 15,5 13 7 21 11 W 10 0 0,0
14.08.2018 23:00:00 13,7 10,3 12,7 15,3 18,1 15,5 11 6 23 13 WNW 45 0 0,0
14.08.2018 22:00:00 13,8 10,0 12,9 16,0 18,1 15,5 18 10 31 17 NW 45 0 0,0
14.08.2018 21:00:00 14,4 10,2 13,4 16,8 18,1 15,5 18 10 29 16 WNW 45 5 0,0
14.08.2018 20:00:00 15,5 11,0 15,5 17,3 18,1 15,5 18 10 33 18 WNW 50 10 0,0
14.08.2018 19:00:00 16,0 11,1 17,1 17,7 18,1 15,5 24 13 37 20 WNW 50 6 0,0
14.08.2018 18:00:00 15,8 11,3 16,3 17,7 18,1 15,5 16 9 34 18 WNW 45 6 0,0
14.08.2018 17:00:00 15,5 11,6 15,8 17,6 18,0 15,5 22 12 37 20 W 35 2 0,0
14.08.2018 16:00:00 15,0 11,4 16,0 17,4 18,1 15,5 21 11 35 19 W 35 6 0,0
14.08.2018 15:00:00 14,1 12,7 14,6 16,9 18,1 15,5 16 9 33 18 W 15 1 0,2
14.08.2018 14:00:00 13,8 12,9 14,0 16,8 18,1 15,5 15 8 34 18 W 8 2 0,1
14.08.2018 13:00:00 13,5 12,5 13,8 16,6 18,2 15,5 20 11 34 18 WSW 8 0 0,0
14.08.2018 12:00:00 13,7 13,2 15,0 15,9 18,3 15,5 21 11 35 19 WSW 0,3 2 0,0
14.08.2018 11:00:00 12,6 12,4 13,0 15,5 18,3 15,5 23 12 38 20 WSW 0,1 0 0,0
14.08.2018 10:00:00 11,9 11,7 12,2 15,3 18,4 15,5 24 13 37 20 WSW 0,1 0 0,0
14.08.2018 09:00:00 11,9 11,8 12,1 15,2 18,6 15,5 20 11 29 16 WSW 0,1 0 0,0
14.08.2018 08:00:00 11,8 11,7 12,0 15,2 18,7 15,5 21 11 30 16 WSW 0,1 0 0,0
14.08.2018 07:00:00 11,6 11,5 11,8 15,2 18,8 15,5 18 10 32 18 W 0,1 0 0,0
14.08.2018 06:00:00 11,6 11,5 11,7 15,4 18,9 15,5 18 10 32 18 WSW 0,1 0 0,0
14.08.2018 05:00:00 11,8 11,7 11,9 15,5 19,0 15,5 20 11 29 16 WSW 0,1 0 0,0
14.08.2018 04:00:00 11,9 11,8 12,0 15,6 19,2 15,5 19 11 36 19 WSW 0,1 0 0,0
14.08.2018 03:00:00 12,0 11,9 12,1 15,7 19,3 15,5 21 11 32 18 WSW 0,1 0 0,0
14.08.2018 02:00:00 11,9 11,8 12,0 15,8 19,4 15,5 23 12 31 17 SW 0,1 0 0,0
14.08.2018 01:00:00 11,5 11,2 11,2 16,2 19,5 15,5 24 13 34 19 SW 8 0 0,0
14.08.2018 00:00:00 12,0 11,0 11,5 16,8 19,6 15,5 26 14 32 18 SW 60 0 0,0
13.08.2018 23:00:00 12,1 11,5 11,6 17,4 19,7 15,5 19 11 62 33 SW 30 0 1,0
13.08.2018 22:00:00 13,8 13,0 12,5 18,1 19,7 15,5 24 13 35 19 SSW 55 0 0,0
13.08.2018 21:00:00 14,3 13,4 13,2 19,0 19,7 15,5 23 12 36 19 S 60 7 0,0
13.08.2018 20:00:00 15,2 13,6 15,0 19,6 19,7 15,5 27 15 41 22 SSW 60 9 0,0
13.08.2018 19:00:00 15,8 13,5 16,9 19,8 19,7 15,5 29 15 47 25 SSW 55 17 0,0
13.08.2018 18:00:00 15,3 13,0 16,3 19,5 19,7 15,5 25 13 46 25 SSW 50 3 0,0
13.08.2018 17:00:00 14,2 13,8 14,9 19,7 19,7 15,5 34 18 49 27 SSW 15 0 0,0
13.08.2018 16:00:00 14,5 13,2 15,3 19,9 19,8 15,5 34 18 55 30 SSW 45 2 0,0
13.08.2018 15:00:00 14,6 13,5 15,8 19,3 19,8 15,5 32 17 49 26 SSW 35 0 0,2
13.08.2018 14:00:00 13,9 12,7 14,4 19,2 19,8 15,5 36 19 45 24 SSW 25 0 0,4
13.08.2018 13:00:00 14,1 13,5 14,5 19,2 19,9 15,5 14 7 31 17 SW 12 0 1,1
13.08.2018 12:00:00 14,1 12,4 14,0 19,3 19,9 15,5 26 14 33 18 SSW 12 0 0,0
13.08.2018 11:00:00 16,0 9,7 16,8 18,9 20,0 15,5 16 9 50 27 WSW 70 5 0,0
13.08.2018 10:00:00 18,4 5,8 18,3 18,7 20,2 15,5 35 19 48 26 SW 80 0 0,0
13.08.2018 09:00:00 20,5 5,2 21,9 17,4 20,3 15,5 22 12 34 18 SSE 82 57 0,0
13.08.2018 08:00:00 18,2 5,8 18,7 16,5 20,5 15,5 21 12 26 14 S 82 48 0,0
13.08.2018 07:00:00 16,1 6,4 14,0 16,6 20,7 15,5 21 11 30 16 S 82 33 0,0
13.08.2018 06:00:00 14,5 6,0 13,3 17,0 20,9 15,5 21 12 26 14 SSW 82 0 0,0
13.08.2018 05:00:00 14,3 5,5 12,5 17,5 21,1 15,5 16 9 20 11 S 82 0 0,0
13.08.2018 04:00:00 14,6 5,2 13,5 18,0 21,3 15,5 15 8 19 10 SSW 82 0 0,0
13.08.2018 03:00:00 14,5 4,9 12,8 18,7 21,5 15,5 16 8 18 10 SSW 82 0 0,0
13.08.2018 02:00:00 14,6 4,6 12,8 19,5 21,6 15,5 16 8 20 11 SSW 82 0 0,0
13.08.2018 01:00:00 14,7 4,4 10,8 20,4 21,7 15,5 14 7 23 12 SSW 82 0 0,0
13.08.2018 00:00:00 15,4 4,7 12,1 21,5 21,7 15,5 10 6 12 7 WSW 82 0 0,0
12.08.2018 23:00:00 16,1 5,8 13,2 22,8 21,7 15,5 9 5 10 6 WSW 82 0 0,0
12.08.2018 22:00:00 17,4 6,3 14,9 24,1 21,5 15,5 9 5 11 6 W 82 0 0,0
12.08.2018 21:00:00 17,6 5,9 15,7 25,7 21,3 15,5 8 5 19 11 WNW 82 0 0,0
12.08.2018 20:00:00 18,8 5,2 18,1 27,4 21,0 15,5 16 9 21 12 S 82 33 0,0
12.08.2018 19:00:00 20,5 5,0 22,1 28,6 20,6 15,5 16 9 31 17 S 82 59 0,0
12.08.2018 18:00:00 22,1 3,8 24,8 29,2 20,2 15,5 17 9 28 15 S 82 60 0,0
12.08.2018 17:00:00 22,4 4,7 25,4 29,1 19,9 15,5 21 12 36 19 S 82 60 0,0
12.08.2018 16:00:00 22,4 5,6 26,3 28,4 19,6 15,5 21 11 34 18 SSE 82 60 0,0
12.08.2018 15:00:00 21,7 4,9 26,6 27,1 19,3 15,5 13 7 35 19 SW 82 60 0,0
12.08.2018 14:00:00 21,8 4,6 24,6 25,4 19,2 15,5 20 11 36 20 SSW 82 60 0,0
12.08.2018 13:00:00 21,0 6,0 25,5 23,1 19,1 15,5 16 9 34 19 SW 82 60 0,0
12.08.2018 12:00:00 19,1 4,8 21,4 20,6 19,2 15,5 21 11 37 20 SW 82 60 0,0
12.08.2018 11:00:00 17,6 4,6 19,7 18,3 19,3 15,5 20 11 37 20 SSW 82 60 0,0
12.08.2018 10:00:00 16,9 4,7 19,3 16,3 19,5 15,5 18 10 27 15 SW 82 58 0,0
12.08.2018 09:00:00 14,8 3,7 17,5 14,6 19,7 15,5 18 10 30 16 S 82 60 0,0
12.08.2018 08:00:00 13,0 3,6 13,7 13,8 19,9 15,5 16 9 21 12 S 82 53 0,0
12.08.2018 07:00:00 11,6 2,3 9,7 13,9 20,2 15,5 14 7 23 12 SSE 82 29 0,0
12.08.2018 06:00:00 10,9 1,7 6,8 14,4 20,4 15,5 17 9 24 13 SSE 82 0 0,0
12.08.2018 05:00:00 10,6 1,8 7,2 15,0 20,6 15,5 15 8 23 12 SSE 82 0 0,0
12.08.2018 04:00:00 9,5 1,8 5,5 15,6 20,8 15,5 13 7 17 9 SE 82 0 0,0
12.08.2018 03:00:00 10,5 1,6 5,9 16,3 21,0 15,5 9 5 11 6 SE 82 0 0,0
12.08.2018 02:00:00 10,9 1,9 6,4 17,1 21,2 15,4 4 2 9 5 E 82 0 0,0
12.08.2018 01:00:00 12,2 1,6 6,7 18,0 21,3 15,4 8 4 12 6 NNE 82 0 0,0
12.08.2018 00:00:00 12,6 1,7 9,5 19,0 21,4 15,4 10 6 15 8 N 82 0 0,0
11.08.2018 23:00:00 12,8 2,1 8,7 20,2 21,4 15,4 12 7 17 9 N 82 0 0,0
11.08.2018 22:00:00 13,0 2,3 11,4 21,5 21,4 15,4 13 7 18 10 NNW 82 0 0,0
11.08.2018 21:00:00 13,5 2,9 12,0 23,0 21,2 15,4 13 7 23 12 NW 82 8 0,0
11.08.2018 20:00:00 15,1 2,9 14,2 24,5 21,1 15,4 14 7 33 18 WNW 82 41 0,0
11.08.2018 19:00:00 16,6 4,2 18,2 25,5 20,9 15,4 15 8 37 20 WSW 82 39 0,0
11.08.2018 18:00:00 18,2 3,7 20,2 26,0 20,7 15,4 20 11 35 19 W 82 54 0,0
11.08.2018 17:00:00 17,9 4,8 20,6 25,7 20,5 15,4 23 12 36 19 WSW 82 38 0,0
11.08.2018 16:00:00 17,5 3,3 18,6 25,1 20,4 15,4 23 12 40 21 WSW 82 51 0,0
11.08.2018 15:00:00 16,7 4,1 19,1 23,7 20,3 15,4 21 12 40 21 W 82 35 0,0
11.08.2018 14:00:00 18,7 5,1 23,1 22,1 20,3 15,4 28 15 47 25 WSW 82 33 0,0
11.08.2018 13:00:00 17,5 5,7 21,6 20,6 20,4 15,4 25 13 39 21 WSW 82 45 0,0
11.08.2018 12:00:00 13,3 6,6 14,5 18,9 20,5 15,4 21 12 35 19 W 82 30 0,0
11.08.2018 11:00:00 12,9 8,3 14,2 17,9 20,6 15,4 19 11 31 17 WSW 80 33 0,2
11.08.2018 10:00:00 11,3 8,5 11,3 17,3 20,8 15,4 21 11 36 19 W 20 10 0,0
11.08.2018 09:00:00 13,0 6,2 14,3 16,4 21,0 15,4 24 13 32 18 SW 82 25 0,0
11.08.2018 08:00:00 11,0 5,5 10,9 16,4 21,2 15,4 19 11 32 18 WSW 82 0 0,0
11.08.2018 07:00:00 10,5 5,0 9,9 16,7 21,4 15,4 19 11 29 16 SW 82 0 0,0
11.08.2018 06:00:00 11,0 5,0 10,6 17,0 21,6 15,4 21 12 35 19 SW 80 0 0,0
11.08.2018 05:00:00 11,2 4,3 10,3 17,5 21,8 15,4 22 12 29 16 SW 80 0 0,0
11.08.2018 04:00:00 11,3 3,7 9,9 18,2 22,0 15,4 22 12 31 17 SW 82 0 0,0
11.08.2018 03:00:00 12,0 4,0 11,2 18,7 22,2 15,4 17 9 23 12 SW 82 0 0,0
11.08.2018 02:00:00 11,8 4,8 11,2 19,3 22,4 15,4 16 9 22 12 SW 82 0 0,0
11.08.2018 01:00:00 12,3 5,3 11,5 20,0 22,5 15,4 18 10 24 13 SW 82 0 0,0
11.08.2018 00:00:00 12,5 5,4 12,0 20,8 22,6 15,4 17 9 24 13 SSW 82 0 0,0
10.08.2018 23:00:00 12,7 5,6 12,3 21,8 22,7 15,4 16 9 24 13 SSW 82 0 0,0
10.08.2018 22:00:00 12,3 5,9 12,3 22,9 22,7 15,4 16 8 19 10 SSW 82 0 0,0
10.08.2018 21:00:00 12,3 5,5 11,3 24,5 22,6 15,4 15 8 21 12 SW 82 4 0,0
10.08.2018 20:00:00 14,4 5,9 14,0 26,0 22,4 15,3 18 10 27 14 SW 82 29 0,0
10.08.2018 19:00:00 16,9 6,4 19,1 26,7 22,2 15,3 14 8 30 16 SW 82 35 0,0
10.08.2018 18:00:00 18,1 6,6 20,6 27,3 22,0 15,3 17 9 36 19 W 82 43 0,0
10.08.2018 17:00:00 18,2 4,4 19,6 27,2 21,9 15,3 26 14 44 24 WSW 82 36 0,0
10.08.2018 16:00:00 17,9 5,4 22,1 26,7 21,7 15,3 26 14 40 22 SSW 82 43 0,0
10.08.2018 15:00:00 15,6 5,3 17,2 26,2 21,6 15,3 17 9 36 19 WSW 82 29 0,0
10.08.2018 14:00:00 16,8 5,9 19,5 25,5 21,6 15,3 22 12 46 25 WSW 82 48 0,0
10.08.2018 13:00:00 17,0 5,9 21,7 23,5 21,6 15,3 21 11 36 20 WSW 82 31 0,0
10.08.2018 12:00:00 13,7 5,9 17,2 22,1 21,7 15,3 18 10 33 18 WSW 82 41 0,0
10.08.2018 11:00:00 13,5 7,0 16,4 20,5 21,9 15,3 16 9 31 17 W 82 50 0,0
10.08.2018 10:00:00 13,2 7,5 16,5 19,1 22,1 15,3 19 10 34 19 WSW 80 56 0,0
10.08.2018 09:00:00 10,2 6,1 12,0 18,5 22,3 15,3 21 11 35 19 W 65 14 0,0
10.08.2018 08:00:00 9,8 8,5 10,2 18,6 22,5 15,3 19 10 34 18 W 65 1 0,0
10.08.2018 07:00:00 10,0 9,1 10,3 18,9 22,7 15,3 23 13 39 21 W 80 0 0,0
10.08.2018 06:00:00 10,6 9,3 10,7 19,4 22,9 15,3 22 12 39 21 W 80 0 0,0
10.08.2018 05:00:00 11,6 10,3 11,8 19,9 23,1 15,3 24 13 37 20 WSW 70 0 0,0
10.08.2018 04:00:00 12,1 10,8 12,0 20,4 23,3 15,3 23 12 56 31 W 70 0 0,0
10.08.2018 03:00:00 12,8 11,1 12,5 21,0 23,5 15,3 40 22 62 33 WSW 70 0 0,0

tt = Température de l'air
td = dewpoint
tt 5cm = Température de l'air 5cm
tt -5cm = Température de l'air -5cm
tt -20cm = Température de l'air -20cm
tt -100cm = Température de l'air -100cm
ff = Vitesse du vent
fx = gusts
dd = Direction du vent
vv = visibility
sd = Ensoleillement
rr = Quantités de précipitations

stations d'obs. à proximité